createdAt,value
2018-08-10T00:00:48.902Z,17.42
2018-08-10T00:02:45.658Z,17.36
2018-08-10T00:03:45.839Z,17.18
2018-08-10T00:09:57.281Z,17.05
2018-08-10T00:12:11.393Z,16.91
2018-08-10T00:13:11.439Z,17.02
2018-08-10T00:15:07.825Z,16.99
2018-08-10T00:17:23.461Z,17.09
2018-08-10T00:18:23.472Z,17.10
2018-08-10T00:20:19.453Z,17.12
2018-08-10T00:21:19.424Z,17.17
2018-08-10T00:23:15.360Z,17.25
2018-08-10T00:24:15.366Z,17.21
2018-08-10T00:26:11.344Z,17.28
2018-08-10T00:27:11.331Z,17.24
2018-08-10T00:29:08.296Z,17.39
2018-08-10T00:30:07.264Z,17.36
2018-08-10T00:32:03.234Z,17.31
2018-08-10T00:33:03.214Z,17.25
2018-08-10T00:34:59.193Z,17.25
2018-08-10T00:36:00.171Z,17.24
2018-08-10T00:37:55.657Z,17.30
2018-08-10T00:38:55.134Z,17.39
2018-08-10T00:40:53.063Z,17.42
2018-08-10T00:41:53.596Z,17.17
2018-08-10T00:43:50.035Z,17.22
2018-08-10T00:44:49.040Z,17.27
2018-08-10T00:46:45.008Z,17.31
2018-08-10T00:47:45.492Z,17.31
2018-08-10T00:49:40.905Z,17.22
2018-08-10T00:50:40.913Z,17.24
2018-08-10T00:52:36.879Z,17.22
2018-08-10T00:53:36.856Z,17.30
2018-08-10T00:55:33.318Z,17.24
2018-08-10T00:56:33.327Z,17.39
2018-08-10T00:58:29.255Z,17.49
2018-08-10T00:59:28.745Z,17.50
2018-08-10T01:01:24.679Z,17.46
2018-08-10T01:02:24.680Z,17.52
2018-08-10T01:04:22.628Z,17.43
2018-08-10T01:05:22.635Z,17.43
2018-08-10T01:07:18.585Z,17.71
2018-08-10T01:08:18.588Z,17.90
2018-08-10T01:10:15.025Z,17.99
2018-08-10T01:11:14.522Z,17.88
2018-08-10T01:13:12.494Z,17.81
2018-08-10T01:14:10.985Z,17.86
2018-08-10T01:16:06.446Z,17.79
2018-08-10T01:17:06.955Z,17.80
2018-08-10T01:19:02.465Z,17.81
2018-08-10T01:20:02.887Z,17.79
2018-08-10T01:21:58.321Z,17.74
2018-08-10T01:22:58.335Z,17.66
2018-08-10T01:24:54.279Z,17.65
2018-08-10T01:25:54.774Z,17.69
2018-08-10T01:27:50.271Z,17.52
2018-08-10T01:28:50.273Z,17.57
2018-08-10T01:30:46.183Z,17.54
2018-08-10T01:31:46.180Z,17.46
2018-08-10T01:33:42.651Z,17.52
2018-08-10T01:34:42.123Z,17.40
2018-08-10T01:36:38.098Z,17.39
2018-08-10T01:37:38.085Z,17.42
2018-08-10T01:39:34.533Z,17.43
2018-08-10T01:40:34.028Z,17.38
2018-08-10T01:42:29.957Z,17.39
2018-08-10T01:43:29.969Z,17.39
2018-08-10T01:45:25.897Z,17.36
2018-08-10T01:46:25.913Z,17.45
2018-08-10T01:48:22.357Z,17.31
2018-08-10T01:49:21.844Z,17.21
2018-08-10T01:51:17.818Z,17.27
2018-08-10T01:52:17.775Z,17.21
2018-08-10T01:54:14.243Z,17.20
2018-08-10T01:55:13.757Z,17.18
2018-08-10T01:57:09.677Z,17.15
2018-08-10T01:58:09.679Z,17.18
2018-08-10T02:00:05.618Z,17.17
2018-08-10T02:01:05.616Z,17.15
2018-08-10T02:03:01.587Z,17.15
2018-08-10T02:04:01.558Z,17.15
2018-08-10T02:05:57.489Z,17.09
2018-08-10T02:06:58.014Z,17.09
2018-08-10T02:08:54.453Z,17.13
2018-08-10T02:11:09.388Z,17.02
2018-08-10T02:12:09.913Z,17.12
2018-08-10T02:14:05.349Z,17.13
2018-08-10T02:15:05.347Z,17.13
2018-08-10T02:17:01.317Z,17.31
2018-08-10T02:18:01.295Z,17.32
2018-08-10T02:19:58.257Z,17.17
2018-08-10T02:20:58.759Z,17.12
2018-08-10T02:22:53.697Z,17.10
2018-08-10T02:23:53.199Z,17.07
2018-08-10T02:25:49.156Z,17.09
2018-08-10T02:26:49.103Z,16.97
2018-08-10T02:28:45.056Z,17.06
2018-08-10T02:29:45.059Z,17.05
2018-08-10T02:31:41.520Z,17.06
2018-08-10T02:32:41.018Z,17.05
2018-08-10T02:34:37.493Z,16.95
2018-08-10T02:35:36.951Z,16.91
2018-08-10T02:37:33.419Z,16.97
2018-08-10T02:38:32.903Z,16.92
2018-08-10T02:40:28.877Z,16.92
2018-08-10T02:41:30.388Z,16.90
2018-08-10T02:43:24.801Z,16.92
2018-08-10T02:44:25.297Z,16.92
2018-08-10T02:46:20.720Z,16.92
2018-08-10T02:47:20.718Z,16.85
2018-08-10T02:49:16.697Z,16.81
2018-08-10T02:50:16.676Z,16.82
2018-08-10T02:52:13.124Z,16.80
2018-08-10T02:53:12.625Z,16.81
2018-08-10T02:55:09.077Z,16.85
2018-08-10T02:56:10.071Z,16.81
2018-08-10T02:58:04.508Z,16.82
2018-08-10T02:59:04.492Z,16.85
2018-08-10T03:01:01.444Z,16.84
2018-08-10T03:02:00.417Z,16.73
2018-08-10T03:03:56.392Z,16.76
2018-08-10T03:04:56.903Z,16.70
2018-08-10T03:06:53.323Z,16.81
2018-08-10T03:07:52.337Z,16.63
2018-08-10T03:09:48.293Z,16.65
2018-08-10T03:10:48.795Z,16.67
2018-08-10T03:12:44.251Z,16.70
2018-08-10T03:13:44.233Z,16.67
2018-08-10T03:15:40.206Z,16.72
2018-08-10T03:17:56.648Z,16.63
2018-08-10T03:18:56.121Z,16.59
2018-08-10T03:20:53.099Z,16.55
2018-08-10T03:21:52.070Z,16.49
2018-08-10T03:23:48.524Z,16.57
2018-08-10T03:24:48.006Z,16.47
2018-08-10T03:26:43.965Z,16.49
2018-08-10T03:27:43.946Z,16.49
2018-08-10T03:29:39.869Z,16.58
2018-08-10T03:30:40.397Z,16.55
2018-08-10T03:32:35.850Z,16.59
2018-08-10T03:33:35.839Z,16.55
2018-08-10T03:35:31.791Z,16.57
2018-08-10T03:36:32.738Z,16.48
2018-08-10T03:38:27.740Z,16.55
2018-08-10T03:39:27.684Z,16.45
2018-08-10T03:41:23.658Z,16.47
2018-08-10T03:42:23.638Z,16.52
2018-08-10T03:44:19.607Z,16.39
2018-08-10T03:45:21.108Z,16.48
2018-08-10T03:47:15.523Z,16.48
2018-08-10T03:48:16.053Z,16.47
2018-08-10T03:50:11.973Z,16.51
2018-08-10T03:51:11.464Z,16.45
2018-08-10T03:53:08.424Z,16.45
2018-08-10T03:54:07.917Z,16.45
2018-08-10T03:56:04.383Z,16.49
2018-08-10T03:57:03.369Z,16.49
2018-08-10T03:58:59.326Z,16.42
2018-08-10T03:59:59.306Z,16.44
2018-08-10T04:01:55.298Z,16.44
2018-08-10T04:02:55.290Z,16.44
2018-08-10T04:04:51.749Z,16.54
2018-08-10T04:05:51.248Z,16.59
2018-08-10T04:07:47.163Z,16.54
2018-08-10T04:08:47.204Z,16.47
2018-08-10T04:10:43.665Z,16.57
2018-08-10T04:11:43.120Z,16.58
2018-08-10T04:13:39.071Z,16.55
2018-08-10T04:14:39.054Z,16.51
2018-08-10T04:16:36.520Z,16.54
2018-08-10T04:17:35.006Z,16.57
2018-08-10T04:19:31.471Z,16.62
2018-08-10T04:20:31.973Z,16.57
2018-08-10T04:22:26.891Z,16.55
2018-08-10T04:23:27.426Z,16.57
2018-08-10T04:25:23.887Z,16.58
2018-08-10T04:26:22.819Z,16.55
2018-08-10T04:28:18.766Z,16.55
2018-08-10T04:29:18.754Z,16.57
2018-08-10T04:31:14.760Z,16.66
2018-08-10T04:32:14.689Z,16.63
2018-08-10T04:34:10.732Z,16.65
2018-08-10T04:35:11.144Z,16.65
2018-08-10T04:37:06.557Z,16.65
2018-08-10T04:38:06.578Z,16.67
2018-08-10T04:40:03.520Z,16.65
2018-08-10T04:41:02.518Z,16.63
2018-08-10T04:42:56.951Z,16.66
2018-08-10T04:43:57.471Z,16.67
2018-08-10T04:45:52.939Z,16.66
2018-08-10T04:46:52.895Z,16.63
2018-08-10T04:48:49.351Z,16.73
2018-08-10T04:49:48.838Z,16.72
2018-08-10T04:51:44.770Z,16.80
2018-08-10T04:52:44.765Z,16.80
2018-08-10T04:54:41.232Z,16.82
2018-08-10T04:55:40.724Z,16.87
2018-08-10T04:57:36.652Z,17.03
2018-08-10T04:58:37.173Z,17.02
2018-08-10T05:00:32.611Z,17.21
2018-08-10T05:01:32.609Z,17.12
2018-08-10T05:03:28.528Z,17.20
2018-08-10T05:04:28.555Z,17.10
2018-08-10T05:06:24.515Z,16.95
2018-08-10T05:07:24.479Z,16.91
2018-08-10T05:09:21.945Z,16.90
2018-08-10T05:10:21.942Z,16.88
2018-08-10T05:12:17.878Z,16.91
2018-08-10T05:13:16.360Z,16.88
2018-08-10T05:15:10.785Z,16.77
2018-08-10T05:16:11.324Z,16.80
2018-08-10T05:18:06.752Z,16.91
2018-08-10T05:19:06.727Z,16.97
2018-08-10T05:21:02.702Z,17.17
2018-08-10T05:22:02.681Z,17.32
2018-08-10T05:23:58.603Z,17.55
2018-08-10T05:24:59.145Z,17.55
2018-08-10T05:26:55.586Z,17.87
2018-08-10T05:27:54.574Z,18.01
2018-08-10T05:29:50.560Z,18.14
2018-08-10T05:30:50.521Z,18.11
2018-08-10T05:32:46.465Z,18.16
2018-08-10T05:33:46.488Z,18.27
2018-08-10T05:35:43.430Z,18.34
2018-08-10T05:36:42.403Z,18.35
2018-08-10T05:38:39.293Z,18.59
2018-08-10T05:39:38.331Z,18.61
2018-08-10T05:41:34.313Z,18.84
2018-08-10T05:42:34.306Z,18.82
2018-08-10T05:44:30.216Z,18.82
2018-08-10T05:45:30.225Z,18.89
2018-08-10T05:47:26.705Z,18.99
2018-08-10T05:48:26.206Z,19.00
2018-08-10T05:50:22.124Z,19.19
2018-08-10T05:51:22.124Z,19.23
2018-08-10T05:53:18.095Z,19.15
2018-08-10T05:54:18.067Z,19.15
2018-08-10T05:56:14.026Z,19.13
2018-08-10T05:57:14.029Z,19.23
2018-08-10T05:59:10.489Z,19.24
2018-08-10T06:00:10.476Z,19.15
2018-08-10T06:02:06.859Z,19.24
2018-08-10T06:03:05.916Z,19.35
2018-08-10T06:05:01.815Z,19.34
2018-08-10T06:06:01.871Z,19.50
2018-08-10T06:08:00.820Z,19.68
2018-08-10T06:08:59.945Z,19.53
2018-08-10T06:10:58.921Z,19.71
2018-08-10T06:11:58.894Z,19.83
2018-08-10T06:14:00.092Z,19.74
2018-08-10T06:16:18.024Z,19.72
2018-08-10T06:17:16.015Z,19.79
2018-08-10T06:19:12.488Z,19.68
2018-08-10T06:20:12.477Z,19.74
2018-08-10T06:22:09.990Z,19.74
2018-08-10T06:23:09.435Z,19.75
2018-08-10T06:25:08.329Z,19.67
2018-08-10T06:26:07.057Z,19.72
2018-08-10T06:28:03.006Z,19.49
2018-08-10T06:29:03.023Z,19.38
2018-08-10T06:30:59.002Z,19.43
2018-08-10T06:31:58.963Z,19.38
2018-08-10T06:33:57.251Z,19.15
2018-08-10T06:34:57.927Z,19.13
2018-08-10T06:38:32.464Z,19.27
2018-08-10T06:41:03.282Z,19.30
